Time;durP1;ratioP1;P1;durP2;ratioP2;P2;SDS_P1;SDS_P2;PMS_P1;PMS_P2;Temp;Humidity;BMP_temperature;BMP_pressure;BME280_temperature;BME280_humidity;BME280_pressure;Samples;Min_cycle;Max_cycle;Signal;HPM_P1;HPM_P2
2023/07/21 04:16:16;;;;;;;4.90;4.00;;;;;;;18.97;84.89;100000.88;5555772;32;275221;-86
2023/07/21 04:19:20;;;;;;;6.40;4.37;;;;;;;19.12;84.16;99995.97;5545223;32;33403;-87
2023/07/21 04:22:23;;;;;;;6.35;3.90;;;;;;;19.36;84.29;99987.44;5545886;32;34409;-87
2023/07/21 04:25:26;;;;;;;4.22;3.65;;;;;;;19.57;84.28;99999.03;5546720;32;33364;-87
2023/07/21 04:28:29;;;;;;;5.32;4.00;;;;;;;19.76;83.12;99992.75;5545677;32;34438;-87
2023/07/21 04:31:32;;;;;;;4.55;4.10;;;;;;;19.88;82.37;99999.66;5560237;32;34781;-87
2023/07/21 04:34:35;;;;;;;5.70;3.92;;;;;;;20.16;81.14;99991.66;5553907;32;34225;-86
2023/07/21 04:37:38;;;;;;;5.93;3.55;;;;;;;20.49;80.83;99993.91;5544512;32;34569;-86
2023/07/21 04:40:44;;;;;;;6.55;3.72;;;;;;;20.57;79.39;100003.94;5543739;32;34454;-86
2023/07/21 04:43:47;;;;;;;7.35;3.78;;;;;;;20.72;77.06;99999.72;5543570;32;33601;-86
2023/07/21 04:46:50;;;;;;;6.53;3.75;;;;;;;20.69;78.02;100000.03;5543661;32;33841;-86
2023/07/21 04:49:53;;;;;;;8.23;4.57;;;;;;;20.70;77.62;99996.31;5544187;32;33865;-86
2023/07/21 04:52:56;;;;;;;4.40;4.00;;;;;;;20.82;80.09;99998.81;5543457;32;33975;-91
2023/07/21 04:55:59;;;;;;;5.32;3.40;;;;;;;20.72;80.38;99993.50;5543556;32;33801;-90
2023/07/21 04:59:02;;;;;;;7.45;3.58;;;;;;;20.84;80.07;100002.19;5544458;32;34195;-91
2023/07/21 05:02:04;;;;;;;4.40;3.60;;;;;;;21.09;78.78;99992.53;5543831;32;34376;-90
2023/07/21 05:05:07;;;;;;;4.95;3.87;;;;;;;21.37;78.48;100003.19;5543455;32;33847;-87
2023/07/21 05:08:11;;;;;;;5.82;4.03;;;;;;;21.76;78.11;100001.12;5546412;32;33484;-87
2023/07/21 05:11:13;;;;;;;3.97;3.58;;;;;;;21.79;75.48;100001.66;5562572;32;33933;-87
2023/07/21 05:14:17;;;;;;;6.70;4.00;;;;;;;22.13;73.36;100016.19;5562070;32;33690;-87
2023/07/21 05:17:21;;;;;;;8.65;4.18;;;;;;;22.10;73.65;100021.94;5563804;32;34165;-87
2023/07/21 05:20:24;;;;;;;6.75;4.80;;;;;;;22.08;73.29;100018.56;5563502;32;34649;-87
2023/07/21 05:23:29;;;;;;;5.10;4.60;;;;;;;22.01;73.38;100023.75;5562888;32;34036;-87
2023/07/21 05:26:35;;;;;;;7.28;4.03;;;;;;;21.71;73.45;100017.81;5557605;32;35270;-86
2023/07/21 05:29:39;;;;;;;8.77;4.50;;;;;;;21.83;73.77;100015.72;5554610;32;34113;-86
2023/07/21 05:32:44;;;;;;;6.12;4.10;;;;;;;21.71;75.22;100009.72;5553244;32;34508;-87
2023/07/21 05:35:47;;;;;;;5.00;4.22;;;;;;;21.71;74.76;100011.59;5550418;32;33674;-87
2023/07/21 05:38:51;;;;;;;8.55;4.68;;;;;;;21.76;74.21;100010.09;5549884;32;34428;-86
2023/07/21 05:41:59;;;;;;;7.18;4.20;;;;;;;21.53;73.87;100005.19;5549756;32;33954;-87
2023/07/21 05:45:05;;;;;;;5.00;4.22;;;;;;;21.53;75.19;100007.03;5549961;32;34059;-86
2023/07/21 05:48:09;;;;;;;7.12;4.43;;;;;;;21.56;74.70;100008.59;5550328;32;33452;-86
2023/07/21 05:51:13;;;;;;;4.82;4.32;;;;;;;21.68;74.59;99994.66;5550047;32;34449;-87
2023/07/21 05:54:16;;;;;;;5.03;4.40;;;;;;;22.12;71.22;99989.38;5550870;32;34638;-86
2023/07/21 05:57:19;;;;;;;6.65;4.70;;;;;;;22.28;70.31;99975.91;5549655;32;33555;-87
2023/07/21 06:00:22;;;;;;;4.97;4.40;;;;;;;22.64;68.03;99984.84;5549957;32;34363;-87
2023/07/21 06:03:26;;;;;;;4.90;4.20;;;;;;;23.17;66.91;99996.25;5548586;32;33495;-87
2023/07/21 06:06:31;;;;;;;5.37;3.70;;;;;;;24.04;61.26;100005.66;5537735;32;33833;-87
2023/07/21 06:09:36;;;;;;;7.47;4.10;;;;;;;24.44;59.48;99999.44;5530452;32;33764;-87
2023/07/21 06:12:39;;;;;;;8.02;4.50;;;;;;;24.00;61.02;99987.22;5530648;32;33754;-86
2023/07/21 06:15:42;;;;;;;4.40;3.95;;;;;;;24.29;60.96;99991.22;5529994;32;33760;-87
2023/07/21 06:18:46;;;;;;;4.87;4.00;;;;;;;24.62;59.04;99985.59;5533606;32;33796;-85
2023/07/21 06:21:48;;;;;;;6.00;3.97;;;;;;;24.81;57.59;99999.78;5534850;32;34469;-85
2023/07/21 06:24:51;;;;;;;4.45;3.78;;;;;;;24.69;58.20;100005.56;5535876;32;33534;-87
2023/07/21 06:27:55;;;;;;;8.32;3.80;;;;;;;24.25;60.34;100016.97;5533737;32;34936;-86
2023/07/21 06:30:58;;;;;;;4.95;3.80;;;;;;;23.57;61.37;100018.09;5533581;32;35353;-86
2023/07/21 06:34:03;;;;;;;4.97;3.97;;;;;;;23.31;64.90;100012.84;5530262;32;33834;-86
2023/07/21 06:37:07;;;;;;;6.57;4.00;;;;;;;23.04;65.80;100018.41;5529555;32;33732;-85
2023/07/21 06:40:10;;;;;;;5.25;3.90;;;;;;;22.98;67.11;100016.37;5534863;32;33529;-86
2023/07/21 06:43:15;;;;;;;6.18;4.20;;;;;;;22.84;68.04;100024.09;5536641;32;34574;-85
2023/07/21 06:46:19;;;;;;;5.80;4.03;;;;;;;22.70;69.13;100022.03;5534188;32;34137;-85
2023/07/21 06:49:22;;;;;;;6.55;4.10;;;;;;;22.50;72.14;100030.41;5536747;32;34423;-85
2023/07/21 06:52:25;;;;;;;6.97;4.15;;;;;;;22.35;71.82;100028.31;5537500;32;33753;-84
2023/07/21 06:55:28;;;;;;;5.12;4.62;;;;;;;22.27;71.40;100025.56;5535283;32;35221;-88
2023/07/21 06:58:31;;;;;;;4.70;4.20;;;;;;;22.41;72.08;100017.84;5537158;32;34790;-87
2023/07/21 07:01:34;;;;;;;5.37;4.57;;;;;;;22.38;73.90;100020.88;5543342;32;35009;-89
2023/07/21 07:04:37;;;;;;;8.88;4.40;;;;;;;22.32;72.69;100014.25;5530422;32;34142;-90
2023/07/21 07:07:40;;;;;;;7.57;4.50;;;;;;;22.39;72.99;100022.59;5530705;32;33442;-87
2023/07/21 07:10:47;;;;;;;7.95;4.25;;;;;;;22.30;73.44;100019.00;5530186;32;33784;-85
2023/07/21 07:13:50;;;;;;;12.02;5.03;;;;;;;22.35;73.31;100027.47;5529972;32;33692;-85
2023/07/21 07:16:53;;;;;;;10.38;4.20;;;;;;;22.45;76.05;100020.09;5530759;32;34086;-85
2023/07/21 07:19:56;;;;;;;7.68;4.15;;;;;;;22.54;72.51;100021.00;5531086;32;33809;-85
2023/07/21 07:22:59;;;;;;;8.63;4.18;;;;;;;22.67;71.63;100025.09;5534859;32;33722;-85
2023/07/21 07:26:02;;;;;;;9.20;4.40;;;;;;;22.68;73.02;100008.69;5534346;32;34274;-86
2023/07/21 07:29:05;;;;;;;4.80;4.30;;;;;;;22.75;70.93;100003.47;5535445;32;35112;-86
2023/07/21 07:32:08;;;;;;;5.50;4.37;;;;;;;22.85;71.15;99987.09;5532682;32;34005;-86
2023/07/21 07:35:11;;;;;;;8.75;4.50;;;;;;;22.96;70.75;99984.06;5531535;32;34278;-86
2023/07/21 07:38:14;;;;;;;7.78;4.32;;;;;;;23.04;69.64;99977.84;5533803;32;33623;-86
2023/07/21 07:41:18;;;;;;;8.55;4.15;;;;;;;23.26;68.57;99978.16;5533304;32;34042;-86
2023/07/21 07:44:21;;;;;;;8.00;4.30;;;;;;;23.36;68.22;99984.28;5539096;32;33798;-86
2023/07/21 07:47:24;;;;;;;17.48;4.28;;;;;;;23.33;68.22;99981.06;5542648;32;33920;-86
2023/07/21 07:50:27;;;;;;;5.65;4.00;;;;;;;23.39;68.60;99980.41;5545563;32;33617;-86
2023/07/21 07:53:35;;;;;;;7.18;4.53;;;;;;;23.53;67.68;99987.00;5538212;32;34898;-86
2023/07/21 07:56:40;;;;;;;5.57;3.72;;;;;;;23.67;66.13;99983.56;5531222;32;33644;-86
2023/07/21 07:59:43;;;;;;;7.07;3.90;;;;;;;23.79;66.76;99986.75;5530733;32;33737;-86
2023/07/21 08:02:47;;;;;;;7.65;4.00;;;;;;;24.49;62.31;99989.75;5530180;32;34736;-86
2023/07/21 08:05:51;;;;;;;9.80;3.80;;;;;;;24.84;62.91;99994.00;5529619;32;33846;-86
2023/07/21 08:08:54;;;;;;;12.93;4.20;;;;;;;25.09;61.08;99994.66;5531218;32;35272;-86
2023/07/21 08:11:57;;;;;;;8.95;3.62;;;;;;;25.27;60.51;99985.34;5534977;32;33871;-86
2023/07/21 08:15:01;;;;;;;7.28;3.83;;;;;;;25.46;60.23;99981.28;5534373;32;34030;-86
2023/07/21 08:18:04;;;;;;;5.87;3.80;;;;;;;25.94;57.25;99978.28;5532602;32;34128;-86
2023/07/21 08:21:24;;;;;;;8.60;4.12;;;;;;;26.10;58.16;99977.22;5532381;32;33951;-86
2023/07/21 08:24:27;;;;;;;7.43;4.20;;;;;;;26.13;57.93;99969.75;5530947;32;33928;-86
2023/07/21 08:27:30;;;;;;;7.12;3.92;;;;;;;26.44;55.97;99974.97;5530591;32;34505;-86
2023/07/21 08:30:33;;;;;;;8.55;4.22;;;;;;;26.59;55.70;99974.94;5529491;32;33486;-86
2023/07/21 08:33:55;;;;;;;12.30;4.97;;;;;;;26.37;56.25;99979.50;5530999;32;33703;-86
2023/07/21 08:36:58;;;;;;;6.95;4.57;;;;;;;26.52;56.60;99979.47;5529003;32;34909;-86
2023/07/21 08:40:01;;;;;;;7.28;4.45;;;;;;;26.67;55.18;99973.97;5530428;32;33709;-86
2023/07/21 08:43:03;;;;;;;5.22;4.72;;;;;;;26.72;55.14;99979.69;5529271;32;34382;-90
2023/07/21 08:46:08;;;;;;;7.28;4.45;;;;;;;26.75;55.92;99973.84;5529041;32;34141;-90
2023/07/21 08:49:15;;;;;;;10.77;4.65;;;;;;;26.84;55.89;99969.13;5529983;32;33710;-90
2023/07/21 08:52:17;;;;;;;5.35;4.70;;;;;;;26.87;54.74;99973.34;5529467;32;33395;-87
2023/07/21 08:55:24;;;;;;;4.82;4.43;;;;;;;26.85;55.83;99970.81;5530616;32;33833;-87
2023/07/21 08:58:28;;;;;;;5.47;4.55;;;;;;;27.23;55.24;99974.31;5529122;32;34146;-87
2023/07/21 09:01:31;;;;;;;5.53;4.50;;;;;;;27.24;53.98;99976.00;5530732;32;33477;-87
2023/07/21 09:04:33;;;;;;;6.10;4.90;;;;;;;26.60;56.16;99971.19;5531865;32;33723;-87
2023/07/21 09:07:41;;;;;;;5.82;4.93;;;;;;;26.60;54.70;99970.34;5532274;32;34434;-86
2023/07/21 09:10:44;;;;;;;8.32;4.78;;;;;;;26.55;53.89;99957.31;5532144;32;34483;-86
2023/07/21 09:13:56;;;;;;;12.02;4.75;;;;;;;26.83;54.55;99950.25;5532358;32;33810;-87
2023/07/21 09:16:58;;;;;;;6.53;4.57;;;;;;;27.00;53.23;99956.34;5532181;32;33521;-87
2023/07/21 09:20:07;;;;;;;5.22;4.72;;;;;;;27.64;52.48;99959.16;5534036;32;34231;-88
2023/07/21 09:23:10;;;;;;;5.85;4.60;;;;;;;27.70;51.72;99947.47;5538719;32;33851;-88
2023/07/21 09:26:20;;;;;;;5.22;4.45;;;;;;;27.86;50.90;99951.78;5538050;32;33804;-88
2023/07/21 09:29:24;;;;;;;6.12;4.90;;;;;;;28.21;50.37;99959.06;5536329;32;33487;-88
2023/07/21 09:32:27;;;;;;;8.52;4.55;;;;;;;27.80;50.14;99955.31;5531073;32;34013;-88
2023/07/21 09:35:30;;;;;;;6.93;4.12;;;;;;;28.28;48.66;99953.66;5531625;32;33907;-88
2023/07/21 09:38:35;;;;;;;4.78;4.37;;;;;;;28.36;47.89;99969.84;5531434;32;33735;-88
2023/07/21 09:41:38;;;;;;;5.87;4.75;;;;;;;28.28;48.27;99983.66;5531664;32;33746;-88
2023/07/21 09:44:47;;;;;;;11.35;4.25;;;;;;;27.92;49.79;99988.28;5532756;32;33483;-89
2023/07/21 09:47:50;;;;;;;8.40;4.45;;;;;;;28.09;49.01;99983.31;5532537;32;34550;-89
2023/07/21 09:51:00;;;;;;;5.45;4.90;;;;;;;28.10;49.19;99976.81;5532439;32;34243;-89
2023/07/21 09:54:04;;;;;;;5.45;4.30;;;;;;;27.51;49.83;99960.72;5530814;32;33542;-89
2023/07/21 09:57:11;;;;;;;9.63;4.18;;;;;;;27.83;48.21;99961.19;5530869;32;34275;-89
2023/07/21 10:00:15;;;;;;;6.68;4.47;;;;;;;29.05;47.15;99954.28;5533239;32;33890;-89
2023/07/21 10:03:20;;;;;;;12.93;4.18;;;;;;;29.52;46.27;99953.44;5535609;32;33755;-89
2023/07/21 10:06:25;;;;;;;6.07;4.70;;;;;;;29.43;45.51;99954.69;5536181;32;34413;-89
2023/07/21 10:09:28;;;;;;;8.23;4.18;;;;;;;29.09;45.67;99946.50;5531788;32;33944;-89
2023/07/21 10:13:03;;;;;;;7.43;4.28;;;;;;;28.76;44.28;99947.31;5534525;32;32396;-89
2023/07/21 10:16:07;;;;;;;5.03;4.40;;;;;;;30.24;42.16;99952.66;5522488;32;33054;-88
2023/07/21 10:19:11;;;;;;;6.80;4.30;;;;;;;30.61;40.52;99954.78;5533866;32;34059;-87
2023/07/21 10:22:25;;;;;;;6.80;4.70;;;;;;;30.25;42.25;99942.53;5534538;32;33863;-87
2023/07/21 10:25:28;;;;;;;8.85;4.70;;;;;;;29.94;41.35;99936.75;5536314;32;33651;-87
2023/07/21 10:28:44;;;;;;;6.47;4.12;;;;;;;29.46;43.12;99927.78;5529590;32;33792;-87
2023/07/21 10:31:55;;;;;;;7.87;4.12;;;;;;;29.83;41.85;99924.56;5531538;32;33587;-86
2023/07/21 10:34:59;;;;;;;7.32;4.47;;;;;;;29.94;41.84;99927.69;5531192;32;34051;-87
2023/07/21 10:38:24;;;;;;;6.35;4.20;;;;;;;30.11;41.31;99920.72;5530860;32;34890;-86
2023/07/21 10:41:26;;;;;;;5.32;4.53;;;;;;;29.79;40.65;99915.16;5531840;32;33804;-87
2023/07/21 10:44:33;;;;;;;8.30;4.37;;;;;;;29.86;41.44;99913.22;5531969;32;34052;-86
2023/07/21 10:47:36;;;;;;;6.22;4.05;;;;;;;29.23;43.40;99908.28;5531360;32;34880;-86
2023/07/21 10:50:48;;;;;;;6.68;3.92;;;;;;;29.16;43.03;99900.09;5531502;32;34384;-86
2023/07/21 10:53:51;;;;;;;8.02;4.57;;;;;;;29.05;43.00;99904.28;5532579;32;34673;-85
2023/07/21 10:56:54;;;;;;;6.22;4.50;;;;;;;29.38;44.43;99895.25;5543767;32;34805;-86
2023/07/21 10:59:57;;;;;;;9.20;4.72;;;;;;;29.72;42.26;99903.41;5539331;32;34930;-87
2023/07/21 11:02:59;;;;;;;9.52;4.47;;;;;;;28.63;46.68;99894.37;5530728;32;33770;-86
2023/07/21 11:06:02;;;;;;;7.70;3.87;;;;;;;29.00;46.35;99896.75;5531629;32;34496;-86
2023/07/21 11:09:05;;;;;;;8.70;4.47;;;;;;;29.02;44.84;99894.63;5532058;32;33608;-86
2023/07/21 11:12:08;;;;;;;8.85;4.50;;;;;;;28.64;45.58;99893.34;5531219;32;33889;-86
2023/07/21 11:15:11;;;;;;;9.13;4.15;;;;;;;28.19;45.73;99898.44;5530815;32;34731;-86
2023/07/21 11:18:14;;;;;;;5.22;3.70;;;;;;;28.06;45.77;99891.06;5530979;32;33459;-86
2023/07/21 11:21:16;;;;;;;12.50;4.53;;;;;;;28.05;45.58;99882.03;5531918;32;34643;-86
2023/07/21 11:24:23;;;;;;;7.30;3.83;;;;;;;27.52;45.05;99886.16;5533196;32;34580;-85
2023/07/21 11:27:29;;;;;;;6.53;3.80;;;;;;;27.21;45.68;99878.41;5534540;32;34012;-85
2023/07/21 11:30:32;;;;;;;5.47;3.60;;;;;;;27.02;44.24;99864.44;5535025;32;34008;-89
2023/07/21 11:33:48;;;;;;;6.72;4.05;;;;;;;26.66;45.71;99868.94;5534373;32;34769;-89
2023/07/21 11:36:58;;;;;;;5.15;3.70;;;;;;;26.66;45.65;99871.66;5533154;32;35081;-87
2023/07/21 11:40:07;;;;;;;5.90;4.13;;;;;;;26.71;49.89;99881.94;5531107;32;34043;-86
2023/07/21 11:43:10;;;;;;;7.97;3.80;;;;;;;26.48;48.73;99891.97;5531931;32;33900;-86
2023/07/21 11:46:25;;;;;;;4.50;4.10;;;;;;;26.56;50.49;99901.91;5530813;32;34078;-86
2023/07/21 11:49:28;;;;;;;7.78;4.30;;;;;;;26.62;50.58;99905.72;5530947;32;34076;-86
2023/07/21 11:52:33;;;;;;;7.22;4.28;;;;;;;26.56;55.85;99903.75;5530106;32;33858;-86
2023/07/21 11:55:36;;;;;;;9.23;3.97;;;;;;;26.36;56.62;99915.28;5529355;32;34494;-85
2023/07/21 11:58:39;;;;;;;8.73;4.50;;;;;;;25.75;63.02;99911.75;5530766;32;34614;-85
2023/07/21 12:01:42;;;;;;;7.30;4.60;;;;;;;25.78;66.10;99907.81;5529818;32;34225;-86
2023/07/21 12:04:45;;;;;;;9.32;4.60;;;;;;;25.41;73.37;99892.28;5531099;32;33843;-85
2023/07/21 12:07:47;;;;;;;8.65;4.47;;;;;;;25.25;70.59;99878.84;5534497;32;34351;-86
2023/07/21 12:10:50;;;;;;;6.62;4.68;;;;;;;25.45;68.79;99881.88;5531520;32;34175;-86
2023/07/21 12:13:53;;;;;;;10.45;4.90;;;;;;;25.43;71.79;99881.19;5532035;32;33652;-86
2023/07/21 12:16:56;;;;;;;8.15;4.97;;;;;;;25.45;70.91;99876.44;5533405;32;33873;-85
2023/07/21 12:19:59;;;;;;;10.55;4.80;;;;;;;25.66;71.57;99874.88;5534096;32;33938;-85
2023/07/21 12:23:02;;;;;;;4.87;4.40;;;;;;;25.83;68.60;99880.94;5532708;32;34149;-84
2023/07/21 12:26:05;;;;;;;5.43;4.20;;;;;;;26.10;67.16;99884.00;5533004;32;34696;-84
2023/07/21 12:29:08;;;;;;;5.10;4.00;;;;;;;26.17;60.50;99886.78;5533120;32;34602;-85
2023/07/21 12:32:11;;;;;;;9.10;4.60;;;;;;;26.60;60.84;99886.03;5532189;32;33609;-85
2023/07/21 12:35:14;;;;;;;5.95;4.20;;;;;;;26.77;61.85;99876.59;5535261;32;34155;-85
2023/07/21 12:38:16;;;;;;;5.10;3.90;;;;;;;27.08;58.60;99873.69;5540008;32;32661;-85
2023/07/21 12:41:19;;;;;;;8.23;4.40;;;;;;;26.94;52.16;99883.66;5538279;32;34111;-85
2023/07/21 12:44:22;;;;;;;4.93;4.22;;;;;;;26.94;51.03;99880.94;5532961;32;33974;-86
2023/07/21 12:47:25;;;;;;;6.07;4.30;;;;;;;26.68;52.26;99876.88;5533104;32;33830;-85
2023/07/21 12:50:28;;;;;;;7.70;3.90;;;;;;;26.42;53.46;99870.16;5533713;32;33991;-85
2023/07/21 12:53:30;;;;;;;6.45;3.92;;;;;;;26.02;52.32;99886.81;5532060;32;33979;-86
2023/07/21 12:56:33;;;;;;;6.82;4.10;;;;;;;25.94;53.79;99885.91;5538734;32;34412;-85
2023/07/21 12:59:36;;;;;;;7.60;4.30;;;;;;;26.17;56.20;99892.22;5542289;32;33692;-85
2023/07/21 13:02:40;;;;;;;13.82;4.28;;;;;;;26.25;55.45;99903.03;5542448;32;33999;-85
2023/07/21 13:05:43;;;;;;;9.57;4.25;;;;;;;26.35;55.81;99905.44;5545449;32;34214;-85
2023/07/21 13:08:58;;;;;;;7.10;4.60;;;;;;;26.19;61.74;99910.03;5544384;32;35394;-85
2023/07/21 13:12:02;;;;;;;5.37;3.87;;;;;;;25.72;66.22;99914.00;5537328;32;34034;-86
2023/07/21 13:15:07;;;;;;;8.50;4.25;;;;;;;25.52;65.65;99917.25;5532251;32;34697;-90
2023/07/21 13:18:10;;;;;;;4.70;4.30;;;;;;;25.59;65.14;99914.69;5530798;32;33708;-91
2023/07/21 13:21:13;;;;;;;8.18;4.03;;;;;;;25.52;65.57;99915.41;5530417;32;33541;-90
2023/07/21 13:24:18;;;;;;;4.72;3.70;;;;;;;25.31;65.62;99910.69;5530528;32;33759;-91
2023/07/21 13:27:21;;;;;;;5.45;3.92;;;;;;;25.35;64.58;99903.00;5530072;32;33820;-87
2023/07/21 13:30:25;;;;;;;4.20;3.80;;;;;;;25.35;63.31;99895.72;5530910;32;33490;-87
2023/07/21 13:33:30;;;;;;;7.97;3.97;;;;;;;25.46;62.59;99889.00;5531023;32;33757;-87
2023/07/21 13:36:33;;;;;;;5.00;4.25;;;;;;;25.63;61.08;99886.94;5530429;32;33868;-87
2023/07/21 13:39:36;;;;;;;8.27;3.60;;;;;;;25.46;60.66;99874.56;5530503;32;33992;-87
2023/07/21 13:42:39;;;;;;;5.37;4.00;;;;;;;25.50;58.84;99874.00;5530700;32;33553;-87
2023/07/21 13:45:42;;;;;;;6.60;3.72;;;;;;;25.60;58.76;99851.19;5530769;32;33452;-86
2023/07/21 13:48:45;;;;;;;6.97;3.62;;;;;;;25.55;57.58;99852.59;5532171;32;33377;-87
2023/07/21 13:51:51;;;;;;;4.40;4.00;;;;;;;25.51;59.09;99856.69;5540331;32;33323;-87
2023/07/21 13:54:54;;;;;;;6.50;3.90;;;;;;;25.33;59.06;99857.03;5543981;32;35344;-88
2023/07/21 13:58:04;;;;;;;8.32;3.83;;;;;;;24.83;62.39;99856.72;5545292;32;34335;-86
2023/07/21 14:01:19;;;;;;;7.22;4.07;;;;;;;24.36;60.88;99853.97;5573642;26;33815;31
2023/07/21 14:04:22;;;;;;;7.12;3.90;;;;;;;24.31;62.62;99835.53;5538859;32;34904;-86
2023/07/21 14:07:25;;;;;;;5.85;4.30;;;;;;;24.39;63.95;99845.47;5532485;32;34545;-86
2023/07/21 14:10:28;;;;;;;7.47;3.97;;;;;;;24.17;66.50;99850.69;5531546;32;34588;-86
2023/07/21 14:13:31;;;;;;;5.90;4.20;;;;;;;24.25;66.33;99854.38;5532198;32;33775;-86
2023/07/21 14:16:34;;;;;;;4.72;4.30;;;;;;;24.20;66.51;99836.78;5532018;32;34339;-87
2023/07/21 14:19:37;;;;;;;4.62;3.97;;;;;;;24.31;65.41;99827.41;5533609;32;35069;-87
2023/07/21 14:22:40;;;;;;;5.97;4.03;;;;;;;24.46;66.05;99810.34;5534394;32;34602;-86
2023/07/21 14:25:42;;;;;;;5.80;4.50;;;;;;;24.90;64.92;99804.22;5534787;32;33962;-85
2023/07/21 14:28:45;;;;;;;4.80;4.22;;;;;;;24.88;64.71;99800.88;5537889;32;33867;-86
2023/07/21 14:31:48;;;;;;;6.47;4.25;;;;;;;24.71;66.53;99805.56;5535590;32;35262;-86
2023/07/21 14:34:51;;;;;;;5.37;4.30;;;;;;;24.65;66.49;99816.31;5533191;32;34662;-87
2023/07/21 14:37:54;;;;;;;6.37;3.62;;;;;;;24.53;65.63;99811.31;5541217;32;34141;-87
2023/07/21 14:40:57;;;;;;;5.25;4.10;;;;;;;24.35;64.78;99801.63;5535958;32;35185;-86
2023/07/21 14:44:00;;;;;;;4.57;3.67;;;;;;;24.35;63.49;99798.91;5530536;32;33893;-86
2023/07/21 14:47:04;;;;;;;5.32;4.03;;;;;;;24.41;63.56;99789.22;5531160;32;33887;-86
2023/07/21 14:50:07;;;;;;;6.07;4.03;;;;;;;24.64;61.88;99799.22;5534027;32;33989;-86
2023/07/21 14:53:10;;;;;;;5.05;4.12;;;;;;;24.64;60.85;99799.22;5532491;32;33846;-86
2023/07/21 14:56:13;;;;;;;5.15;4.12;;;;;;;24.62;61.42;99801.25;5531581;32;34411;-86
2023/07/21 14:59:16;;;;;;;6.53;3.60;;;;;;;24.64;62.57;99799.22;5532724;32;34571;-85
2023/07/21 15:02:19;;;;;;;5.15;3.60;;;;;;;24.84;57.47;99799.53;5533943;32;34131;-86
2023/07/21 15:05:22;;;;;;;4.20;3.33;;;;;;;24.76;57.27;99788.75;5538023;32;33657;-86
2023/07/21 15:08:25;;;;;;;4.57;3.47;;;;;;;24.92;55.97;99784.22;5536498;32;34538;-86
2023/07/21 15:11:28;;;;;;;3.60;3.10;;;;;;;24.93;56.47;99772.34;5540542;32;34552;-86
2023/07/21 15:14:30;;;;;;;6.00;3.35;;;;;;;24.83;55.85;99770.75;5544921;32;34162;-86
2023/07/21 15:17:33;;;;;;;5.53;3.50;;;;;;;24.61;55.93;99761.59;5545217;32;34356;-86
2023/07/21 15:20:36;;;;;;;3.62;3.12;;;;;;;24.47;56.18;99746.97;5545220;32;34678;-86
2023/07/21 15:23:40;;;;;;;3.30;3.00;;;;;;;24.52;57.07;99732.88;5544761;32;35149;-89
2023/07/21 15:26:43;;;;;;;3.12;2.83;;;;;;;24.62;55.25;99725.31;5540156;32;33698;-90
